Time,TemperatureF,DewpointF,PressureIn,WindDirection,WindDirectionDegrees,WindSpeedMPH,WindSpeedGustMPH,Humidity,HourlyPrecipIn,Conditions,Clouds,dailyrainin,SoftwareType,DateUTC
2013-08-25 00:00:00,62.9,55.6,29.93,SE,126,0.0,0.0,77,0.00,,---,0.00,VWS V14.01,2013-08-25 07:00:00,
2013-08-25 00:02:00,62.9,55.6,29.93,SE,131,0.0,0.0,77,0.00,,---,0.00,VWS V14.01,2013-08-25 07:02:00,
2013-08-25 00:07:00,62.8,55.1,29.93,ENE,73,0.0,0.0,76,0.00,,---,0.00,VWS V14.01,2013-08-25 07:07:00,
2013-08-25 00:12:00,62.8,55.1,29.93,East,79,0.0,0.0,76,0.00,,---,0.00,VWS V14.01,2013-08-25 07:12:00,
2013-08-25 00:15:00,62.7,55.0,29.93,ENE,78,0.0,0.0,76,0.00,,---,0.00,VWS V14.01,2013-08-25 07:15:00,
2013-08-25 00:17:00,62.7,55.0,29.93,ENE,78,0.0,0.0,76,0.00,,---,0.00,VWS V14.01,2013-08-25 07:17:00,
2013-08-25 00:22:00,62.7,55.0,29.93,ENE,66,0.0,0.0,76,0.00,,---,0.00,VWS V14.01,2013-08-25 07:22:00,
2013-08-25 00:27:00,62.7,55.4,29.93,West,264,0.0,0.0,77,0.00,,---,0.00,VWS V14.01,2013-08-25 07:27:00,
2013-08-25 00:30:00,62.7,55.4,29.93,West,279,0.0,0.0,77,0.00,,---,0.00,VWS V14.01,2013-08-25 07:30:00,
2013-08-25 00:32:00,62.7,55.4,29.93,East,101,0.0,0.0,77,0.00,,---,0.00,VWS V14.01,2013-08-25 07:32:00,
2013-08-25 00:37:00,62.7,56.1,29.93,ESE,105,0.0,0.0,79,0.00,,---,0.00,VWS V14.01,2013-08-25 07:37:00,
2013-08-25 00:42:00,62.7,56.1,29.93,East,95,0.0,0.0,79,0.00,,---,0.00,VWS V14.01,2013-08-25 07:42:00,
2013-08-25 00:45:00,62.7,56.1,29.93,ESE,103,0.0,0.0,79,0.00,,---,0.00,VWS V14.01,2013-08-25 07:45:00,
2013-08-25 00:47:00,62.7,56.5,29.93,ENE,71,0.0,0.0,80,0.00,,---,0.00,VWS V14.01,2013-08-25 07:47:00,
2013-08-25 00:52:00,62.6,56.0,29.93,SE,146,0.0,0.0,79,0.00,,---,0.00,VWS V14.01,2013-08-25 07:52:00,
2013-08-25 00:57:00,62.5,55.9,29.93,East,99,0.0,0.0,79,0.00,,---,0.00,VWS V14.01,2013-08-25 07:57:00,
2013-08-25 01:00:00,62.3,56.1,29.93,SE,126,0.0,0.0,80,0.00,,---,0.00,VWS V14.01,2013-08-25 08:00:00,
2013-08-25 01:02:00,62.3,56.1,29.93,South,183,0.0,0.0,80,0.00,,---,0.00,VWS V14.01,2013-08-25 08:02:00,
2013-08-25 01:07:00,62.2,56.3,29.93,East,88,0.0,0.0,81,0.00,,---,0.00,VWS V14.01,2013-08-25 08:07:00,
2013-08-25 01:12:00,62.2,56.0,29.93,ESE,108,0.0,0.0,80,0.00,,---,0.00,VWS V14.01,2013-08-25 08:12:00,
2013-08-25 01:15:00,62.0,56.1,29.93,East,83,0.0,0.0,81,0.00,,---,0.00,VWS V14.01,2013-08-25 08:15:00,
2013-08-25 01:17:00,62.0,56.1,29.94,East,83,0.0,0.0,81,0.00,,---,0.00,VWS V14.01,2013-08-25 08:17:00,
2013-08-25 01:22:00,61.8,55.6,29.94,East,85,0.0,0.0,80,0.00,,---,0.00,VWS V14.01,2013-08-25 08:22:00,
2013-08-25 01:27:00,61.6,55.4,29.94,East,86,0.0,0.0,80,0.00,,---,0.00,VWS V14.01,2013-08-25 08:27:00,
2013-08-25 01:30:00,61.7,55.8,29.94,East,89,0.0,0.0,81,0.00,,---,0.00,VWS V14.01,2013-08-25 08:30:00,
2013-08-25 01:32:00,61.7,55.8,29.94,East,93,0.0,0.0,81,0.00,,---,0.00,VWS V14.01,2013-08-25 08:32:00,
2013-08-25 01:37:00,61.6,56.1,29.94,SE,128,0.0,0.0,82,0.00,,---,0.00,VWS V14.01,2013-08-25 08:37:00,
2013-08-25 01:42:00,61.5,55.6,29.94,ESE,111,0.0,0.0,81,0.00,,---,0.00,VWS V14.01,2013-08-25 08:42:00,
2013-08-25 01:45:00,61.5,55.6,29.94,ESE,107,0.0,0.0,81,0.00,,---,0.00,VWS V14.01,2013-08-25 08:45:00,
2013-08-25 01:47:00,61.5,56.0,29.94,ESE,107,0.0,0.0,82,0.00,,---,0.00,VWS V14.01,2013-08-25 08:47:00,
2013-08-25 01:52:00,61.5,55.6,29.94,ESE,107,0.0,0.0,81,0.00,,---,0.00,VWS V14.01,2013-08-25 08:52:00,
2013-08-25 01:57:00,61.4,55.2,29.94,ESE,107,0.0,0.0,80,0.00,,---,0.00,VWS V14.01,2013-08-25 08:57:00,
2013-08-25 02:00:00,62.3,56.1,29.93,SE,126,0.0,0.0,80,0.00,,---,0.00,VWS V14.01,2013-08-25 09:00:00,
2013-08-25 02:02:00,61.3,55.4,29.94,ESE,107,0.0,0.0,81,0.00,,---,0.00,VWS V14.01,2013-08-25 09:02:00,
2013-08-25 02:07:00,61.3,55.8,29.94,East,96,0.0,0.0,82,0.00,,---,0.00,VWS V14.01,2013-08-25 09:07:00,
2013-08-25 02:12:00,61.2,55.3,29.94,ESE,119,0.0,0.0,81,0.00,,---,0.00,VWS V14.01,2013-08-25 09:12:00,
2013-08-25 02:15:00,62.0,56.1,29.93,East,83,0.0,0.0,81,0.00,,---,0.00,VWS V14.01,2013-08-25 09:15:00,
2013-08-25 02:17:00,61.2,56.0,29.94,East,92,0.0,0.0,83,0.00,,---,0.00,VWS V14.01,2013-08-25 09:17:00,
2013-08-25 02:22:00,61.0,55.1,29.94,ENE,57,0.0,0.0,81,0.00,,---,0.00,VWS V14.01,2013-08-25 09:22:00,
2013-08-25 02:27:00,60.9,55.0,29.94,ENE,57,0.0,0.0,81,0.00,,---,0.00,VWS V14.01,2013-08-25 09:27:00,
2013-08-25 02:30:00,60.8,54.9,29.94,North,355,0.0,0.0,81,0.00,,---,0.00,VWS V14.01,2013-08-25 09:30:00,
2013-08-25 02:32:00,60.8,54.9,29.94,North,355,0.0,0.0,81,0.00,,---,0.00,VWS V14.01,2013-08-25 09:32:00,
2013-08-25 02:37:00,60.8,55.3,29.94,ENE,67,0.0,0.0,82,0.00,,---,0.00,VWS V14.01,2013-08-25 09:37:00,
2013-08-25 02:42:00,60.8,55.3,29.94,ENE,74,0.0,0.0,82,0.00,,---,0.00,VWS V14.01,2013-08-25 09:42:00,
2013-08-25 02:45:00,61.5,55.6,29.94,ESE,107,0.0,0.0,81,0.00,,---,0.00,VWS V14.01,2013-08-25 09:45:00,
2013-08-25 02:47:00,60.8,55.3,29.94,NE,50,0.0,0.0,82,0.00,,---,0.00,VWS V14.01,2013-08-25 09:47:00,
2013-08-25 02:52:00,60.9,55.4,29.94,NE,51,0.0,0.0,82,0.00,,---,0.00,VWS V14.01,2013-08-25 09:52:00,
2013-08-25 02:57:00,60.7,54.8,29.94,NE,51,0.0,0.0,81,0.00,,---,0.00,VWS V14.01,2013-08-25 09:57:00,
2013-08-25 03:00:00,61.3,55.4,29.94,ESE,107,0.0,0.0,81,0.00,,---,0.00,VWS V14.01,2013-08-25 10:00:00,
2013-08-25 03:02:00,60.6,54.8,29.94,NE,50,0.0,0.0,81,0.00,,---,0.00,VWS V14.01,2013-08-25 10:02:00,
2013-08-25 03:07:00,60.5,54.7,29.94,NE,46,0.0,0.0,81,0.00,,---,0.00,VWS V14.01,2013-08-25 10:07:00,
2013-08-25 03:12:00,60.5,54.7,29.94,East,94,0.0,0.0,81,0.00,,---,0.00,VWS V14.01,2013-08-25 10:12:00,
2013-08-25 03:15:00,61.1,55.6,29.94,East,92,0.0,0.0,82,0.00,,---,0.00,VWS V14.01,2013-08-25 10:15:00,
2013-08-25 03:17:00,60.5,55.3,29.94,ESE,111,0.0,0.0,83,0.00,,---,0.00,VWS V14.01,2013-08-25 10:17:00,
2013-08-25 03:22:00,60.5,54.7,29.94,NE,56,0.0,0.0,81,0.00,,---,0.00,VWS V14.01,2013-08-25 10:22:00,
2013-08-25 03:27:00,60.4,54.9,29.94,ENE,59,0.0,0.0,82,0.00,,---,0.00,VWS V14.01,2013-08-25 10:27:00,
2013-08-25 03:30:00,60.4,54.9,29.94,SE,146,0.0,0.0,82,0.00,,---,0.00,VWS V14.01,2013-08-25 10:30:00,
2013-08-25 03:32:00,60.3,54.5,29.94,South,178,0.0,0.0,81,0.00,,---,0.00,VWS V14.01,2013-08-25 10:32:00,
2013-08-25 03:37:00,60.2,54.4,29.94,SSE,157,0.0,0.0,81,0.00,,---,0.00,VWS V14.01,2013-08-25 10:37:00,
2013-08-25 03:41:00,60.2,54.4,29.94,ENE,65,0.0,0.0,81,0.00,,---,0.00,VWS V14.01,2013-08-25 10:41:00,
2013-08-25 03:45:00,60.1,54.3,29.94,NNE,33,0.0,0.0,81,0.00,,---,0.00,VWS V14.01,2013-08-25 10:45:00,
2013-08-25 03:46:00,60.1,54.3,29.94,NNE,33,0.0,0.0,81,0.00,,---,0.00,VWS V14.01,2013-08-25 10:46:00,
2013-08-25 03:51:00,60.1,54.3,29.94,WNW,298,0.0,0.0,81,0.00,,---,0.00,VWS V14.01,2013-08-25 10:51:00,
2013-08-25 03:56:00,60.0,54.2,29.94,NW,317,0.0,0.0,81,0.00,,---,0.00,VWS V14.01,2013-08-25 10:56:00,
2013-08-25 04:00:00,60.6,54.8,29.94,NE,50,0.0,0.0,81,0.00,,---,0.00,VWS V14.01,2013-08-25 11:00:00,
2013-08-25 04:01:00,60.0,54.2,29.94,NNE,19,0.0,0.0,81,0.00,,---,0.00,VWS V14.01,2013-08-25 11:01:00,
2013-08-25 04:06:00,59.9,54.1,29.94,North,5,0.0,0.0,81,0.00,,---,0.00,VWS V14.01,2013-08-25 11:06:00,
2013-08-25 04:11:00,59.9,54.1,29.95,North,5,0.0,0.0,81,0.00,,---,0.00,VWS V14.01,2013-08-25 11:11:00,
2013-08-25 04:15:00,59.8,54.3,29.94,North,5,0.0,0.0,82,0.00,,---,0.00,VWS V14.01,2013-08-25 11:15:00,
2013-08-25 04:16:00,59.8,54.3,29.94,North,5,0.0,0.0,82,0.00,,---,0.00,VWS V14.01,2013-08-25 11:16:00,
2013-08-25 04:21:00,59.8,54.3,29.94,North,5,0.0,0.0,82,0.00,,---,0.00,VWS V14.01,2013-08-25 11:21:00,
2013-08-25 04:26:00,59.8,54.3,29.94,North,5,0.0,0.0,82,0.00,,---,0.00,VWS V14.01,2013-08-25 11:26:00,
2013-08-25 04:30:00,59.7,54.2,29.94,North,5,0.0,0.0,82,0.00,,---,0.00,VWS V14.01,2013-08-25 11:30:00,
2013-08-25 04:31:00,59.7,54.2,29.94,North,5,0.0,0.0,82,0.00,,---,0.00,VWS V14.01,2013-08-25 11:31:00,
2013-08-25 04:36:00,59.6,54.1,29.94,North,5,0.0,0.0,82,0.00,,---,0.00,VWS V14.01,2013-08-25 11:36:00,
2013-08-25 04:41:00,59.6,54.1,29.94,NNE,31,0.0,0.0,82,0.00,,---,0.00,VWS V14.01,2013-08-25 11:41:00,
2013-08-25 04:45:00,59.6,54.1,29.94,NW,326,0.0,0.0,82,0.00,,---,0.00,VWS V14.01,2013-08-25 11:45:00,
2013-08-25 04:46:00,59.6,54.1,29.94,NW,326,0.0,0.0,82,0.00,,---,0.00,VWS V14.01,2013-08-25 11:46:00,
2013-08-25 04:51:00,59.6,54.4,29.94,ESE,121,0.0,0.0,83,0.00,,---,0.00,VWS V14.01,2013-08-25 11:51:00,
2013-08-25 04:56:00,59.6,54.4,29.94,ENE,74,0.0,0.0,83,0.00,,---,0.00,VWS V14.01,2013-08-25 11:56:00,
2013-08-25 05:00:00,59.6,54.1,29.94,WNW,285,0.0,0.0,82,0.00,,---,0.00,VWS V14.01,2013-08-25 12:00:00,
2013-08-25 05:01:00,59.6,54.1,29.94,WNW,285,0.0,0.0,82,0.00,,---,0.00,VWS V14.01,2013-08-25 12:01:00,
2013-08-25 05:06:00,59.6,54.1,29.94,East,93,0.0,0.0,82,0.00,,---,0.00,VWS V14.01,2013-08-25 12:06:00,
2013-08-25 05:11:00,59.6,54.1,29.94,SE,124,0.0,0.0,82,0.00,,---,0.00,VWS V14.01,2013-08-25 12:11:00,
2013-08-25 05:15:00,59.5,53.7,29.94,NE,34,0.0,0.0,81,0.00,,---,0.00,VWS V14.01,2013-08-25 12:15:00,
2013-08-25 05:16:00,59.5,53.7,29.94,NE,34,0.0,0.0,81,0.00,,---,0.00,VWS V14.01,2013-08-25 12:16:00,
2013-08-25 05:21:00,59.5,53.7,29.94,East,90,0.0,0.0,81,0.00,,---,0.00,VWS V14.01,2013-08-25 12:21:00,
2013-08-25 05:26:00,59.5,54.0,29.94,ENE,65,0.0,0.0,82,0.00,,---,0.00,VWS V14.01,2013-08-25 12:26:00,
2013-08-25 05:30:00,59.4,53.9,29.94,ENE,67,0.0,0.0,82,0.00,,---,0.00,VWS V14.01,2013-08-25 12:30:00,
2013-08-25 05:31:00,59.4,53.9,29.94,ENE,67,0.0,0.0,82,0.00,,---,0.00,VWS V14.01,2013-08-25 12:31:00,
2013-08-25 05:36:00,59.5,53.7,29.94,ENE,66,0.0,0.0,81,0.00,,---,0.00,VWS V14.01,2013-08-25 12:36:00,
2013-08-25 05:41:00,59.3,53.5,29.94,NNW,341,0.0,0.0,81,0.00,,---,0.00,VWS V14.01,2013-08-25 12:41:00,
2013-08-25 05:45:00,59.2,53.7,29.94,NNW,331,0.0,0.0,82,0.00,,---,0.00,VWS V14.01,2013-08-25 12:45:00,
2013-08-25 05:46:00,59.2,53.7,29.94,NNW,331,0.0,0.0,82,0.00,,---,0.00,VWS V14.01,2013-08-25 12:46:00,
2013-08-25 05:51:00,59.2,54.0,29.94,NNE,33,0.0,0.0,83,0.00,,---,0.00,VWS V14.01,2013-08-25 12:51:00,
2013-08-25 05:56:00,59.3,54.2,29.94,East,79,0.0,0.0,83,0.00,,---,0.00,VWS V14.01,2013-08-25 12:56:00,
2013-08-25 06:00:00,59.2,54.0,29.94,South,179,0.0,0.0,83,0.00,,---,0.00,VWS V14.01,2013-08-25 13:00:00,
2013-08-25 06:01:00,59.2,54.0,29.94,South,179,0.0,0.0,83,0.00,,---,0.00,VWS V14.01,2013-08-25 13:01:00,
2013-08-25 06:06:00,59.2,54.4,29.94,ENE,72,0.0,0.0,84,0.00,,---,0.00,VWS V14.01,2013-08-25 13:06:00,
2013-08-25 06:11:00,59.1,54.0,29.95,ENE,75,0.0,0.0,83,0.00,,---,0.00,VWS V14.01,2013-08-25 13:11:00,
2013-08-25 06:15:00,59.1,54.0,29.95,East,86,0.0,0.0,83,0.00,,---,0.00,VWS V14.01,2013-08-25 13:15:00,
2013-08-25 06:16:00,59.1,54.0,29.95,East,96,0.0,0.0,83,0.00,,---,0.00,VWS V14.01,2013-08-25 13:16:00,
2013-08-25 06:21:00,59.0,53.8,29.95,East,82,0.0,0.0,83,0.00,,---,0.00,VWS V14.01,2013-08-25 13:21:00,
2013-08-25 06:26:00,59.0,53.5,29.95,East,84,0.0,0.0,82,0.00,,---,0.00,VWS V14.01,2013-08-25 13:26:00,
2013-08-25 06:30:00,59.0,53.5,29.95,NE,54,0.0,0.0,82,0.00,,---,0.00,VWS V14.01,2013-08-25 13:30:00,
2013-08-25 06:31:00,59.0,53.5,29.95,NE,54,0.0,0.0,82,0.00,,---,0.00,VWS V14.01,2013-08-25 13:31:00,
2013-08-25 06:36:00,59.0,53.5,29.95,NE,48,0.0,0.0,82,0.00,,---,0.00,VWS V14.01,2013-08-25 13:36:00,
2013-08-25 06:41:00,59.1,53.6,29.95,NNE,24,0.0,0.0,82,0.00,,---,0.00,VWS V14.01,2013-08-25 13:41:00,
2013-08-25 06:45:00,59.1,53.6,29.95,NNE,17,0.0,0.0,82,0.00,,---,0.00,VWS V14.01,2013-08-25 13:45:00,
2013-08-25 06:46:00,59.1,53.6,29.95,NNE,16,0.0,0.0,82,0.00,,---,0.00,VWS V14.01,2013-08-25 13:46:00,
2013-08-25 06:51:00,59.2,53.7,29.95,NNE,16,0.0,0.0,82,0.00,,---,0.00,VWS V14.01,2013-08-25 13:51:00,
2013-08-25 06:56:00,59.1,54.3,29.95,NNE,15,0.0,0.0,84,0.00,,---,0.00,VWS V14.01,2013-08-25 13:56:00,
2013-08-25 07:00:00,59.0,54.2,29.95,NNE,16,0.0,0.0,84,0.00,,---,0.00,VWS V14.01,2013-08-25 14:00:00,
2013-08-25 07:01:00,59.0,54.2,29.95,NNE,16,0.0,0.0,84,0.00,,---,0.00,VWS V14.01,2013-08-25 14:01:00,
2013-08-25 07:06:00,58.9,54.1,29.96,NNE,16,0.0,0.0,84,0.00,,---,0.00,VWS V14.01,2013-08-25 14:06:00,
2013-08-25 07:11:00,59.0,53.8,29.96,East,92,0.0,0.0,83,0.00,,---,0.00,VWS V14.01,2013-08-25 14:11:00,
2013-08-25 07:15:00,59.0,53.8,29.96,NNW,327,0.0,0.0,83,0.00,,---,0.00,VWS V14.01,2013-08-25 14:15:00,
2013-08-25 07:16:00,59.0,53.8,29.96,NNW,327,0.0,0.0,83,0.00,,---,0.00,VWS V14.01,2013-08-25 14:16:00,
2013-08-25 07:21:00,59.1,54.0,29.96,NE,40,0.0,0.0,83,0.00,,---,0.00,VWS V14.01,2013-08-25 14:21:00,
2013-08-25 07:26:00,59.2,53.7,29.96,NNW,330,0.0,0.0,82,0.00,,---,0.00,VWS V14.01,2013-08-25 14:26:00,
2013-08-25 07:30:00,59.2,53.7,29.95,NNE,30,0.0,0.0,82,0.00,,---,0.00,VWS V14.01,2013-08-25 14:30:00,
2013-08-25 07:31:00,59.2,53.7,29.95,NNE,30,0.0,0.0,82,0.00,,---,0.00,VWS V14.01,2013-08-25 14:31:00,
2013-08-25 07:36:00,59.4,53.6,29.95,NNE,26,0.0,0.0,81,0.00,,---,0.00,VWS V14.01,2013-08-25 14:36:00,
2013-08-25 07:41:00,59.5,53.3,29.95,WNW,291,0.0,0.0,80,0.00,,---,0.00,VWS V14.01,2013-08-25 14:41:00,
2013-08-25 07:45:00,59.6,53.4,29.96,WNW,302,0.0,0.0,80,0.00,,---,0.00,VWS V14.01,2013-08-25 14:45:00,
2013-08-25 07:46:00,59.6,53.4,29.96,WNW,303,0.0,0.0,80,0.00,,---,0.00,VWS V14.01,2013-08-25 14:46:00,
2013-08-25 07:51:00,59.6,53.4,29.96,East,96,0.0,0.0,80,0.00,,---,0.00,VWS V14.01,2013-08-25 14:51:00,
2013-08-25 07:56:00,59.7,53.5,29.96,NNW,328,0.0,0.0,80,0.00,,---,0.00,VWS V14.01,2013-08-25 14:56:00,
2013-08-25 08:00:00,59.8,53.6,29.95,West,276,0.0,0.0,80,0.00,,---,0.00,VWS V14.01,2013-08-25 15:00:00,
2013-08-25 08:01:00,59.8,53.6,29.95,NNW,327,0.0,0.0,80,0.00,,---,0.00,VWS V14.01,2013-08-25 15:01:00,
2013-08-25 08:06:00,59.9,53.7,29.96,NE,40,0.0,0.0,80,0.00,,---,0.00,VWS V14.01,2013-08-25 15:06:00,
2013-08-25 08:11:00,60.0,53.8,29.96,ENE,58,0.0,0.0,80,0.00,,---,0.00,VWS V14.01,2013-08-25 15:11:00,
2013-08-25 08:15:00,60.0,53.8,29.95,NNE,33,0.0,0.0,80,0.00,,---,0.00,VWS V14.01,2013-08-25 15:15:00,
2013-08-25 08:16:00,60.0,53.8,29.95,NNE,33,0.0,0.0,80,0.00,,---,0.00,VWS V14.01,2013-08-25 15:16:00,
2013-08-25 08:21:00,60.2,54.0,29.95,East,91,0.0,0.0,80,0.00,,---,0.00,VWS V14.01,2013-08-25 15:21:00,
2013-08-25 08:26:00,60.6,54.1,29.95,West,262,0.0,0.0,79,0.00,,---,0.00,VWS V14.01,2013-08-25 15:26:00,
2013-08-25 08:30:00,60.9,54.3,29.95,SSE,168,0.0,0.0,79,0.00,,---,0.00,VWS V14.01,2013-08-25 15:30:00,
2013-08-25 08:31:00,60.9,54.3,29.95,South,191,0.0,0.0,79,0.00,,---,0.00,VWS V14.01,2013-08-25 15:31:00,
2013-08-25 08:36:00,61.0,54.1,29.95,ENE,75,0.0,0.0,78,0.00,,---,0.00,VWS V14.01,2013-08-25 15:36:00,
2013-08-25 08:41:00,61.1,54.5,29.95,NE,51,0.0,0.0,79,0.00,,---,0.00,VWS V14.01,2013-08-25 15:41:00,
2013-08-25 08:45:00,61.3,54.7,29.95,SE,132,0.0,0.0,79,0.00,,---,0.00,VWS V14.01,2013-08-25 15:45:00,
2013-08-25 08:46:00,61.3,54.7,29.95,SW,219,0.0,0.0,79,0.00,,---,0.00,VWS V14.01,2013-08-25 15:46:00,
2013-08-25 08:51:00,61.7,54.8,29.95,WSW,254,0.0,0.0,78,0.00,,---,0.00,VWS V14.01,2013-08-25 15:51:00,
2013-08-25 08:56:00,61.9,55.0,29.95,WSW,248,0.0,0.0,78,0.00,,---,0.00,VWS V14.01,2013-08-25 15:56:00,
2013-08-25 09:00:00,62.3,55.0,29.94,West,262,0.0,0.0,77,0.00,,---,0.00,VWS V14.01,2013-08-25 16:00:00,
2013-08-25 09:01:00,62.3,55.0,29.94,West,262,0.0,0.0,77,0.00,,---,0.00,VWS V14.01,2013-08-25 16:01:00,
2013-08-25 09:06:00,62.0,54.7,29.94,NNW,334,0.0,0.0,77,0.00,,---,0.00,VWS V14.01,2013-08-25 16:06:00,
2013-08-25 09:11:00,62.5,55.2,29.94,NNW,335,0.0,0.0,77,0.00,,---,0.00,VWS V14.01,2013-08-25 16:11:00,
2013-08-25 09:15:00,62.7,55.0,29.94,NNE,17,0.0,0.0,76,0.00,,---,0.00,VWS V14.01,2013-08-25 16:15:00,
2013-08-25 09:16:00,62.7,55.0,29.94,North,355,0.0,0.0,76,0.00,,---,0.00,VWS V14.01,2013-08-25 16:16:00,
2013-08-25 09:21:00,62.7,55.0,29.94,North,355,0.0,0.0,76,0.00,,---,0.00,VWS V14.01,2013-08-25 16:21:00,
2013-08-25 09:26:00,62.9,55.2,29.94,NNW,343,0.0,0.0,76,0.00,,---,0.00,VWS V14.01,2013-08-25 16:26:00,
2013-08-25 09:30:00,63.1,55.1,29.94,NNW,344,0.0,0.0,75,0.00,,---,0.00,VWS V14.01,2013-08-25 16:30:00,
2013-08-25 09:31:00,63.1,55.1,29.94,NNW,343,0.0,0.0,75,0.00,,---,0.00,VWS V14.01,2013-08-25 16:31:00,
2013-08-25 09:36:00,63.1,55.1,29.94,NNW,343,0.0,0.0,75,0.00,,---,0.00,VWS V14.01,2013-08-25 16:36:00,
2013-08-25 09:41:00,63.4,55.3,29.94,NNW,343,0.0,0.0,75,0.00,,---,0.00,VWS V14.01,2013-08-25 16:41:00,
2013-08-25 09:45:00,62.7,55.0,29.94,NNW,343,0.0,0.0,76,0.00,,---,0.00,VWS V14.01,2013-08-25 16:45:00,
2013-08-25 09:46:00,62.8,55.1,29.94,NNW,343,0.0,0.0,76,0.00,,---,0.00,VWS V14.01,2013-08-25 16:46:00,
2013-08-25 09:51:00,61.7,54.8,29.94,WNW,284,0.0,0.0,78,0.00,,---,0.00,VWS V14.01,2013-08-25 16:51:00,
2013-08-25 09:56:00,60.8,54.9,29.94,West,268,0.0,0.0,81,0.00,,---,0.00,VWS V14.01,2013-08-25 16:56:00,
2013-08-25 10:00:00,60.7,55.2,29.94,WSW,241,0.0,0.0,82,0.00,,---,0.00,VWS V14.01,2013-08-25 17:00:00,
2013-08-25 10:01:00,60.7,54.8,29.94,WSW,238,0.0,0.0,81,0.00,,---,0.00,VWS V14.01,2013-08-25 17:01:00,
2013-08-25 10:06:00,61.0,55.1,29.94,West,259,0.0,0.0,81,0.00,,---,0.00,VWS V14.01,2013-08-25 17:06:00,
2013-08-25 10:11:00,60.6,55.1,29.94,WSW,249,0.0,0.0,82,0.00,,---,0.00,VWS V14.01,2013-08-25 17:11:00,
2013-08-25 10:15:00,60.8,55.3,29.94,West,267,0.0,0.0,82,0.00,,---,0.00,VWS V14.01,2013-08-25 17:15:00,
2013-08-25 10:16:00,60.8,55.3,29.94,West,260,0.0,0.0,82,0.00,,---,0.00,VWS V14.01,2013-08-25 17:16:00,
2013-08-25 10:21:00,60.9,55.4,29.94,WSW,254,0.0,0.0,82,0.00,,---,0.00,VWS V14.01,2013-08-25 17:21:00,
2013-08-25 10:26:00,61.8,55.9,29.94,WNW,287,0.0,0.0,81,0.00,,---,0.00,VWS V14.01,2013-08-25 17:26:00,
2013-08-25 10:30:00,62.5,55.6,29.94,West,270,0.0,0.0,78,0.00,,---,0.00,VWS V14.01,2013-08-25 17:30:00,
2013-08-25 10:31:00,62.5,55.6,29.94,West,271,0.0,0.0,78,0.00,,---,0.00,VWS V14.01,2013-08-25 17:31:00,
2013-08-25 10:36:00,62.2,55.6,29.94,WSW,258,0.0,0.0,79,0.00,,---,0.00,VWS V14.01,2013-08-25 17:36:00,
2013-08-25 10:41:00,62.5,55.6,29.94,West,266,0.0,0.0,78,0.00,,---,0.00,VWS V14.01,2013-08-25 17:41:00,
2013-08-25 10:45:00,62.7,55.0,29.94,NNW,343,0.0,0.0,76,0.00,,---,0.00,VWS V14.01,2013-08-25 17:45:00,
2013-08-25 10:46:00,62.7,55.8,29.94,WSW,258,0.0,0.0,78,0.00,,---,0.00,VWS V14.01,2013-08-25 17:46:00,
2013-08-25 10:50:00,63.3,56.0,29.93,WNW,298,0.0,0.0,77,0.00,,---,0.00,VWS V14.01,2013-08-25 17:50:00,
2013-08-25 10:55:00,63.8,56.1,29.93,West,259,0.0,0.0,76,0.00,,---,0.00,VWS V14.01,2013-08-25 17:55:00,
2013-08-25 11:00:00,63.5,55.4,29.93,West,261,0.0,0.0,75,0.00,,---,0.00,VWS V14.01,2013-08-25 18:00:00,
2013-08-25 11:05:00,63.6,55.5,29.93,WSW,258,0.0,0.0,75,0.00,,---,0.00,VWS V14.01,2013-08-25 18:05:00,
2013-08-25 11:10:00,63.9,55.8,29.93,WSW,248,0.0,0.0,75,0.00,,---,0.00,VWS V14.01,2013-08-25 18:10:00,
2013-08-25 11:15:00,64.8,56.0,29.93,WNW,284,0.0,0.0,73,0.00,,---,0.00,VWS V14.01,2013-08-25 18:15:00,
2013-08-25 11:20:00,65.4,56.2,29.93,WNW,284,0.0,0.0,72,0.00,,---,0.00,VWS V14.01,2013-08-25 18:20:00,
2013-08-25 11:25:00,65.7,55.7,29.93,NNW,337,0.0,0.0,70,0.00,,---,0.00,VWS V14.01,2013-08-25 18:25:00,
2013-08-25 11:30:00,65.8,56.2,29.93,NW,315,0.0,0.0,71,0.00,,---,0.00,VWS V14.01,2013-08-25 18:30:00,
2013-08-25 11:35:00,66.3,55.8,29.93,North,351,0.0,0.0,69,0.00,,---,0.00,VWS V14.01,2013-08-25 18:35:00,
2013-08-25 11:40:00,66.8,56.3,29.93,NNW,337,0.0,0.0,69,0.00,,---,0.00,VWS V14.01,2013-08-25 18:40:00,
2013-08-25 11:45:00,66.4,55.9,29.93,NW,321,0.0,0.0,69,0.00,,---,0.00,VWS V14.01,2013-08-25 18:45:00,
2013-08-25 11:50:00,66.5,55.6,29.92,NNW,334,0.0,0.0,68,0.00,,---,0.00,VWS V14.01,2013-08-25 18:50:00,
2013-08-25 11:55:00,66.8,55.5,29.92,NNW,327,0.0,0.0,67,0.00,,---,0.00,VWS V14.01,2013-08-25 18:55:00,
2013-08-25 12:00:00,67.1,55.8,29.92,NNW,342,0.0,0.0,67,0.00,,---,0.00,VWS V14.01,2013-08-25 19:00:00,
2013-08-25 12:05:00,67.5,55.8,29.92,NW,325,0.0,0.0,66,0.00,,---,0.00,VWS V14.01,2013-08-25 19:05:00,
2013-08-25 12:10:00,67.8,55.6,29.92,North,349,0.0,0.0,65,0.00,,---,0.00,VWS V14.01,2013-08-25 19:10:00,
2013-08-25 12:15:00,68.0,55.4,29.92,NNW,342,0.0,0.0,64,0.00,,---,0.00,VWS V14.01,2013-08-25 19:15:00,
2013-08-25 12:20:00,68.2,54.2,29.92,NNW,336,0.0,0.0,61,0.00,,---,0.00,VWS V14.01,2013-08-25 19:20:00,
2013-08-25 12:25:00,67.9,54.8,29.91,NNW,333,0.0,0.0,63,0.00,,---,0.00,VWS V14.01,2013-08-25 19:25:00,
2013-08-25 12:30:00,68.4,54.9,29.91,NW,309,0.0,0.0,62,0.00,,---,0.00,VWS V14.01,2013-08-25 19:30:00,
2013-08-25 12:35:00,68.2,54.7,29.92,West,271,0.0,0.0,62,0.00,,---,0.00,VWS V14.01,2013-08-25 19:35:00,
2013-08-25 12:40:00,68.6,54.2,29.91,WNW,295,0.0,0.0,60,0.00,,---,0.00,VWS V14.01,2013-08-25 19:40:00,
2013-08-25 12:45:00,68.7,54.3,29.91,NNW,329,0.0,0.0,60,0.00,,---,0.00,VWS V14.01,2013-08-25 19:45:00,
2013-08-25 12:50:00,68.3,53.9,29.91,NNW,328,0.0,0.0,60,0.00,,---,0.00,VWS V14.01,2013-08-25 19:50:00,
2013-08-25 12:55:00,68.2,53.8,29.91,NNW,338,0.0,0.0,60,0.00,,---,0.00,VWS V14.01,2013-08-25 19:55:00,
2013-08-25 13:00:00,68.9,53.5,29.91,NNW,345,0.0,0.0,58,0.00,,---,0.00,VWS V14.01,2013-08-25 20:00:00,
2013-08-25 13:05:00,69.2,53.8,29.91,WNW,288,0.0,0.0,58,0.00,,---,0.00,VWS V14.01,2013-08-25 20:05:00,
2013-08-25 13:10:00,68.3,53.4,29.91,West,267,0.0,0.0,59,0.00,,---,0.00,VWS V14.01,2013-08-25 20:10:00,
2013-08-25 13:15:00,68.0,53.6,29.91,West,281,0.0,0.0,60,0.00,,---,0.00,VWS V14.01,2013-08-25 20:15:00,
2013-08-25 13:20:00,68.1,53.7,29.91,West,277,0.0,0.0,60,0.00,,---,0.00,VWS V14.01,2013-08-25 20:20:00,
2013-08-25 13:25:00,68.1,54.2,29.91,West,277,0.0,0.0,61,0.00,,---,0.00,VWS V14.01,2013-08-25 20:25:00,
2013-08-25 13:30:00,68.2,54.2,29.90,West,271,0.0,0.0,61,0.00,,---,0.00,VWS V14.01,2013-08-25 20:30:00,
2013-08-25 13:35:00,68.5,55.0,29.91,West,271,0.0,0.0,62,0.00,,---,0.00,VWS V14.01,2013-08-25 20:35:00,
2013-08-25 13:40:00,69.2,55.2,29.91,West,270,0.0,0.0,61,0.00,,---,0.00,VWS V14.01,2013-08-25 20:40:00,
2013-08-25 13:45:00,69.3,55.3,29.90,West,271,0.0,0.0,61,0.00,,---,0.00,VWS V14.01,2013-08-25 20:45:00,
2013-08-25 13:50:00,68.6,55.1,29.90,West,268,0.0,0.0,62,0.00,,---,0.00,VWS V14.01,2013-08-25 20:50:00,
2013-08-25 13:55:00,68.0,55.4,29.90,West,268,0.0,0.0,64,0.00,,---,0.00,VWS V14.01,2013-08-25 20:55:00,
2013-08-25 14:00:00,68.2,56.0,29.90,West,268,0.0,0.0,65,0.00,,---,0.00,VWS V14.01,2013-08-25 21:00:00,
2013-08-25 14:05:00,68.0,55.8,29.90,West,268,0.0,0.0,65,0.00,,---,0.00,VWS V14.01,2013-08-25 21:05:00,
2013-08-25 14:10:00,68.0,55.8,29.90,West,268,0.0,0.0,65,0.00,,---,0.00,VWS V14.01,2013-08-25 21:10:00,
2013-08-25 14:15:00,67.6,56.3,29.90,West,267,0.0,0.0,67,0.00,,---,0.00,VWS V14.01,2013-08-25 21:15:00,
2013-08-25 14:20:00,67.6,55.8,29.89,NW,304,0.0,0.0,66,0.00,,---,0.00,VWS V14.01,2013-08-25 21:20:00,
2013-08-25 14:25:00,67.8,56.0,29.89,WNW,287,0.0,0.0,66,0.00,,---,0.00,VWS V14.01,2013-08-25 21:25:00,
2013-08-25 14:30:00,68.1,55.9,29.89,WSW,254,0.0,0.0,65,0.00,,---,0.00,VWS V14.01,2013-08-25 21:30:00,
2013-08-25 14:35:00,68.2,56.0,29.89,West,261,0.0,0.0,65,0.00,,---,0.00,VWS V14.01,2013-08-25 21:35:00,
2013-08-25 14:40:00,68.5,55.9,29.89,WSW,258,0.0,0.0,64,0.00,,---,0.00,VWS V14.01,2013-08-25 21:40:00,
2013-08-25 14:45:00,68.8,55.7,29.89,West,270,0.0,0.0,63,0.00,,---,0.00,VWS V14.01,2013-08-25 21:45:00,
2013-08-25 14:50:00,68.9,55.8,29.89,West,276,0.0,0.0,63,0.00,,---,0.00,VWS V14.01,2013-08-25 21:50:00,
2013-08-25 14:55:00,68.8,56.1,29.89,WNW,295,0.0,0.0,64,0.00,,---,0.00,VWS V14.01,2013-08-25 21:55:00,
2013-08-25 15:00:00,68.5,55.9,29.89,WNW,290,0.0,0.0,64,0.00,,---,0.00,VWS V14.01,2013-08-25 22:00:00,
2013-08-25 15:05:00,68.2,55.6,29.89,WNW,294,0.0,0.0,64,0.00,,---,0.00,VWS V14.01,2013-08-25 22:05:00,
2013-08-25 15:10:00,67.7,56.0,29.89,WNW,291,0.0,0.0,66,0.00,,---,0.00,VWS V14.01,2013-08-25 22:10:00,
2013-08-25 15:15:00,67.6,55.4,29.89,WNW,291,0.0,0.0,65,0.00,,---,0.00,VWS V14.01,2013-08-25 22:15:00,
2013-08-25 15:20:00,67.4,55.2,29.89,WNW,289,0.0,0.0,65,0.00,,---,0.00,VWS V14.01,2013-08-25 22:20:00,
2013-08-25 15:25:00,67.7,55.1,29.89,WNW,289,0.0,0.0,64,0.00,,---,0.00,VWS V14.01,2013-08-25 22:25:00,
2013-08-25 15:30:00,67.6,55.4,29.89,WNW,288,0.0,0.0,65,0.00,,---,0.00,VWS V14.01,2013-08-25 22:30:00,
2013-08-25 15:35:00,67.3,55.2,29.89,WNW,288,0.0,0.0,65,0.00,,---,0.00,VWS V14.01,2013-08-25 22:35:00,
2013-08-25 15:40:00,67.5,55.3,29.89,WNW,288,0.0,0.0,65,0.00,,---,0.00,VWS V14.01,2013-08-25 22:40:00,
2013-08-25 15:45:00,67.9,54.8,29.89,WNW,288,0.0,0.0,63,0.00,,---,0.00,VWS V14.01,2013-08-25 22:45:00,
2013-08-25 15:50:00,68.4,55.3,29.89,WNW,288,0.0,0.0,63,0.00,,---,0.00,VWS V14.01,2013-08-25 22:50:00,
2013-08-25 15:55:00,68.7,54.7,29.89,WNW,288,0.0,0.0,61,0.00,,---,0.00,VWS V14.01,2013-08-25 22:55:00,
2013-08-25 16:00:00,68.9,54.9,29.89,WNW,288,0.0,0.0,61,0.00,,---,0.00,VWS V14.01,2013-08-25 23:00:00,
2013-08-25 16:05:00,69.0,55.5,29.89,WNW,288,0.0,0.0,62,0.00,,---,0.00,VWS V14.01,2013-08-25 23:05:00,
2013-08-25 16:10:00,67.9,55.7,29.89,West,278,0.0,0.0,65,0.00,,---,0.00,VWS V14.01,2013-08-25 23:10:00,
2013-08-25 16:15:00,66.8,55.5,29.89,West,278,0.0,0.0,67,0.00,,---,0.00,VWS V14.01,2013-08-25 23:15:00,
2013-08-25 16:20:00,66.6,54.9,29.89,West,278,0.0,0.0,66,0.00,,---,0.00,VWS V14.01,2013-08-25 23:20:00,
2013-08-25 16:25:00,66.8,55.5,29.89,West,278,0.0,0.0,67,0.00,,---,0.00,VWS V14.01,2013-08-25 23:25:00,
2013-08-25 16:30:00,66.8,55.5,29.89,West,278,0.0,0.0,67,0.00,,---,0.00,VWS V14.01,2013-08-25 23:30:00,
2013-08-25 16:35:00,66.9,55.6,29.89,West,278,0.0,0.0,67,0.00,,---,0.00,VWS V14.01,2013-08-25 23:35:00,
2013-08-25 16:40:00,67.0,56.5,29.89,West,278,0.0,0.0,69,0.00,,---,0.00,VWS V14.01,2013-08-25 23:40:00,
2013-08-25 16:45:00,67.2,56.3,29.89,West,278,0.0,0.0,68,0.00,,---,0.00,VWS V14.01,2013-08-25 23:45:00,
2013-08-25 16:50:00,67.2,56.3,29.89,West,278,0.0,0.0,68,0.00,,---,0.00,VWS V14.01,2013-08-25 23:50:00,
2013-08-25 16:55:00,67.2,56.3,29.89,West,278,0.0,0.0,68,0.00,,---,0.00,VWS V14.01,2013-08-25 23:55:00,
2013-08-25 17:00:00,67.1,56.6,29.89,West,278,0.0,0.0,69,0.00,,---,0.00,VWS V14.01,2013-08-26 00:00:00,
2013-08-25 17:05:00,67.1,56.6,29.89,West,278,0.0,0.0,69,0.00,,---,0.00,VWS V14.01,2013-08-26 00:05:00,
2013-08-25 17:10:00,67.1,56.2,29.89,WSW,258,0.0,0.0,68,0.00,,---,0.00,VWS V14.01,2013-08-26 00:10:00,
2013-08-25 17:15:00,67.0,55.7,29.89,West,261,0.0,0.0,67,0.00,,---,0.00,VWS V14.01,2013-08-26 00:15:00,
2013-08-25 17:20:00,67.3,56.4,29.88,West,281,0.0,0.0,68,0.00,,---,0.00,VWS V14.01,2013-08-26 00:20:00,
2013-08-25 17:25:00,67.6,56.3,29.89,West,279,0.0,0.0,67,0.00,,---,0.00,VWS V14.01,2013-08-26 00:25:00,
2013-08-25 17:30:00,67.7,56.0,29.88,West,275,0.0,0.0,66,0.00,,---,0.00,VWS V14.01,2013-08-26 00:30:00,
2013-08-25 17:35:00,67.8,56.5,29.89,West,275,0.0,0.0,67,0.00,,---,0.00,VWS V14.01,2013-08-26 00:35:00,
2013-08-25 17:40:00,67.9,56.5,29.88,West,275,0.0,0.0,67,0.00,,---,0.00,VWS V14.01,2013-08-26 00:40:00,
2013-08-25 17:45:00,68.0,56.7,29.89,West,275,0.0,0.0,67,0.00,,---,0.00,VWS V14.01,2013-08-26 00:45:00,
2013-08-25 17:50:00,68.2,56.4,29.88,West,275,0.0,0.0,66,0.00,,---,0.00,VWS V14.01,2013-08-26 00:50:00,
2013-08-25 17:54:00,68.2,56.4,29.88,West,275,0.0,0.0,66,0.00,,---,0.00,VWS V14.01,2013-08-26 00:54:00,
2013-08-25 17:59:00,68.2,56.4,29.88,West,275,0.0,0.0,66,0.00,,---,0.00,VWS V14.01,2013-08-26 00:59:00,
2013-08-25 18:00:00,68.1,56.3,29.89,West,275,0.0,0.0,66,0.00,,---,0.00,VWS V14.01,2013-08-26 01:00:00,
2013-08-25 18:04:00,68.1,56.3,29.89,West,275,0.0,0.0,66,0.00,,---,0.00,VWS V14.01,2013-08-26 01:04:00,
2013-08-25 18:09:00,68.1,56.3,29.89,West,275,0.0,0.0,66,0.00,,---,0.00,VWS V14.01,2013-08-26 01:09:00,
2013-08-25 18:14:00,68.3,56.5,29.89,West,273,0.0,0.0,66,0.00,,---,0.00,VWS V14.01,2013-08-26 01:14:00,
2013-08-25 18:15:00,68.3,56.5,29.88,West,273,0.0,0.0,66,0.00,,---,0.00,VWS V14.01,2013-08-26 01:15:00,
2013-08-25 18:19:00,68.2,56.4,29.88,West,273,0.0,0.0,66,0.00,,---,0.00,VWS V14.01,2013-08-26 01:19:00,
2013-08-25 18:24:00,68.1,55.9,29.88,West,273,0.0,0.0,65,0.00,,---,0.00,VWS V14.01,2013-08-26 01:24:00,
2013-08-25 18:29:00,68.1,55.9,29.88,West,273,0.0,0.0,65,0.00,,---,0.00,VWS V14.01,2013-08-26 01:29:00,
2013-08-25 18:30:00,68.1,55.9,29.88,West,273,0.0,0.0,65,0.00,,---,0.00,VWS V14.01,2013-08-26 01:30:00,
2013-08-25 18:34:00,67.9,56.1,29.88,West,274,0.0,0.0,66,0.00,,---,0.00,VWS V14.01,2013-08-26 01:34:00,
2013-08-25 18:39:00,67.4,55.2,29.88,West,273,0.0,0.0,65,0.00,,---,0.00,VWS V14.01,2013-08-26 01:39:00,
2013-08-25 18:44:00,66.7,55.4,29.88,West,273,0.0,0.0,67,0.00,,---,0.00,VWS V14.01,2013-08-26 01:44:00,
2013-08-25 18:45:00,66.5,55.2,29.88,West,273,0.0,0.0,67,0.00,,---,0.00,VWS V14.01,2013-08-26 01:45:00,
2013-08-25 18:49:00,66.3,55.4,29.88,West,273,0.0,0.0,68,0.00,,---,0.00,VWS V14.01,2013-08-26 01:49:00,
2013-08-25 18:54:00,66.2,55.3,29.88,West,273,0.0,0.0,68,0.00,,---,0.00,VWS V14.01,2013-08-26 01:54:00,
2013-08-25 18:59:00,66.3,55.4,29.88,West,273,0.0,0.0,68,0.00,,---,0.00,VWS V14.01,2013-08-26 01:59:00,
2013-08-25 19:00:00,66.4,55.5,29.88,West,273,0.0,0.0,68,0.00,,---,0.00,VWS V14.01,2013-08-26 02:00:00,
2013-08-25 19:04:00,66.5,55.6,29.88,West,273,0.0,0.0,68,0.00,,---,0.00,VWS V14.01,2013-08-26 02:04:00,
2013-08-25 19:09:00,66.7,55.4,29.88,West,273,0.0,0.0,67,0.00,,---,0.00,VWS V14.01,2013-08-26 02:09:00,
2013-08-25 19:14:00,66.9,55.6,29.89,West,273,0.0,0.0,67,0.00,,---,0.00,VWS V14.01,2013-08-26 02:14:00,
2013-08-25 19:15:00,66.9,55.6,29.89,West,273,0.0,0.0,67,0.00,,---,0.00,VWS V14.01,2013-08-26 02:15:00,
2013-08-25 19:19:00,67.0,55.7,29.89,West,273,0.0,0.0,67,0.00,,---,0.00,VWS V14.01,2013-08-26 02:19:00,
2013-08-25 19:24:00,67.1,56.2,29.89,West,273,0.0,0.0,68,0.00,,---,0.00,VWS V14.01,2013-08-26 02:24:00,
2013-08-25 19:29:00,67.3,56.0,29.89,South,177,0.0,0.0,67,0.00,,---,0.00,VWS V14.01,2013-08-26 02:29:00,
2013-08-25 19:30:00,67.4,56.1,29.89,SSW,195,0.0,0.0,67,0.00,,---,0.00,VWS V14.01,2013-08-26 02:30:00,
2013-08-25 19:34:00,67.4,56.1,29.89,South,187,0.0,0.0,67,0.00,,---,0.00,VWS V14.01,2013-08-26 02:34:00,
2013-08-25 19:39:00,67.5,56.2,29.89,South,181,0.0,0.0,67,0.00,,---,0.00,VWS V14.01,2013-08-26 02:39:00,
2013-08-25 19:44:00,67.5,55.8,29.89,WSW,237,0.0,0.0,66,0.00,,---,0.00,VWS V14.01,2013-08-26 02:44:00,
2013-08-25 19:45:00,67.4,55.7,29.89,SW,220,0.0,0.0,66,0.00,,---,0.00,VWS V14.01,2013-08-26 02:45:00,
2013-08-25 19:49:00,67.4,55.7,29.89,WSW,245,0.0,0.0,66,0.00,,---,0.00,VWS V14.01,2013-08-26 02:49:00,
2013-08-25 19:54:00,67.2,55.5,29.89,SSE,157,0.0,0.0,66,0.00,,---,0.00,VWS V14.01,2013-08-26 02:54:00,
2013-08-25 19:59:00,67.1,55.4,29.89,SSE,158,0.0,0.0,66,0.00,,---,0.00,VWS V14.01,2013-08-26 02:59:00,
2013-08-25 20:00:00,67.0,55.3,29.89,SSE,158,0.0,0.0,66,0.00,,---,0.00,VWS V14.01,2013-08-26 03:00:00,
2013-08-25 20:04:00,66.9,55.2,29.89,SSE,157,0.0,0.0,66,0.00,,---,0.00,VWS V14.01,2013-08-26 03:04:00,
2013-08-25 20:09:00,66.9,55.2,29.89,South,188,0.0,0.0,66,0.00,,---,0.00,VWS V14.01,2013-08-26 03:09:00,
2013-08-25 20:14:00,66.9,55.2,29.89,South,189,0.0,0.0,66,0.00,,---,0.00,VWS V14.01,2013-08-26 03:14:00,
2013-08-25 20:15:00,66.9,55.2,29.89,South,172,0.0,0.0,66,0.00,,---,0.00,VWS V14.01,2013-08-26 03:15:00,
2013-08-25 20:19:00,67.0,55.3,29.89,South,173,0.0,0.0,66,0.00,,---,0.00,VWS V14.01,2013-08-26 03:19:00,
2013-08-25 20:24:00,67.1,55.4,29.88,South,190,0.0,0.0,66,0.00,,---,0.00,VWS V14.01,2013-08-26 03:24:00,
2013-08-25 20:29:00,67.1,55.4,29.88,South,182,0.0,0.0,66,0.00,,---,0.00,VWS V14.01,2013-08-26 03:29:00,
2013-08-25 20:30:00,67.1,55.4,29.88,South,184,0.0,0.0,66,0.00,,---,0.00,VWS V14.01,2013-08-26 03:30:00,
2013-08-25 20:34:00,67.1,55.4,29.88,South,173,0.0,0.0,66,0.00,,---,0.00,VWS V14.01,2013-08-26 03:34:00,
2013-08-25 20:39:00,67.1,55.4,29.88,SSE,165,0.0,0.0,66,0.00,,---,0.00,VWS V14.01,2013-08-26 03:39:00,
2013-08-25 20:44:00,67.1,55.4,29.88,South,169,0.0,0.0,66,0.00,,---,0.00,VWS V14.01,2013-08-26 03:44:00,
2013-08-25 20:45:00,67.2,55.5,29.88,South,169,0.0,0.0,66,0.00,,---,0.00,VWS V14.01,2013-08-26 03:45:00,
2013-08-25 20:49:00,67.2,55.5,29.88,South,170,0.0,0.0,66,0.00,,---,0.00,VWS V14.01,2013-08-26 03:49:00,
2013-08-25 20:54:00,67.3,55.6,29.88,South,170,0.0,0.0,66,0.00,,---,0.00,VWS V14.01,2013-08-26 03:54:00,
2013-08-25 20:59:00,67.4,55.7,29.88,South,170,0.0,0.0,66,0.00,,---,0.00,VWS V14.01,2013-08-26 03:59:00,
2013-08-25 21:00:00,67.4,55.7,29.88,South,170,0.0,0.0,66,0.00,,---,0.00,VWS V14.01,2013-08-26 04:00:00,
2013-08-25 21:01:00,67.4,55.2,29.88,South,170,0.0,0.0,65,0.00,,---,0.00,VWS V14.01,2013-08-26 04:01:00,
2013-08-25 21:06:00,67.5,55.3,29.89,South,170,0.0,0.0,65,0.00,,---,0.00,VWS V14.01,2013-08-26 04:06:00,
2013-08-25 21:11:00,67.6,55.8,29.89,South,170,0.0,0.0,66,0.00,,---,0.00,VWS V14.01,2013-08-26 04:11:00,
2013-08-25 21:15:00,67.8,56.0,29.89,South,170,0.0,0.0,66,0.00,,---,0.00,VWS V14.01,2013-08-26 04:15:00,
2013-08-25 21:16:00,67.7,56.0,29.89,South,170,0.0,0.0,66,0.00,,---,0.00,VWS V14.01,2013-08-26 04:16:00,
2013-08-25 21:21:00,67.9,55.7,29.89,SSE,163,0.0,0.0,65,0.00,,---,0.00,VWS V14.01,2013-08-26 04:21:00,
2013-08-25 21:26:00,67.9,55.7,29.89,SSE,163,0.0,0.0,65,0.00,,---,0.00,VWS V14.01,2013-08-26 04:26:00,
2013-08-25 21:30:00,68.0,55.8,29.90,SSE,163,0.0,0.0,65,0.00,,---,0.00,VWS V14.01,2013-08-26 04:30:00,
2013-08-25 21:31:00,68.0,55.8,29.90,SSE,163,0.0,0.0,65,0.00,,---,0.00,VWS V14.01,2013-08-26 04:31:00,
2013-08-25 21:36:00,67.9,55.7,29.90,SE,146,0.0,0.0,65,0.00,,---,0.00,VWS V14.01,2013-08-26 04:36:00,
2013-08-25 21:41:00,68.0,55.8,29.90,SSE,148,0.0,0.0,65,0.00,,---,0.00,VWS V14.01,2013-08-26 04:41:00,
2013-08-25 21:45:00,68.0,56.2,29.90,SSE,148,0.0,0.0,66,0.00,,---,0.00,VWS V14.01,2013-08-26 04:45:00,
2013-08-25 21:46:00,68.0,56.2,29.90,SSE,148,0.0,0.0,66,0.00,,---,0.00,VWS V14.01,2013-08-26 04:46:00,
2013-08-25 21:51:00,67.9,56.5,29.90,SSE,148,0.0,0.0,67,0.00,,---,0.00,VWS V14.01,2013-08-26 04:51:00,
2013-08-25 21:56:00,67.9,57.0,29.90,SSE,150,0.0,0.0,68,0.00,,---,0.00,VWS V14.01,2013-08-26 04:56:00,
2013-08-25 22:00:00,67.8,57.3,29.90,SSE,150,0.0,0.0,69,0.00,,---,0.00,VWS V14.01,2013-08-26 05:00:00,
2013-08-25 22:01:00,67.9,57.4,29.90,SSE,150,0.0,0.0,69,0.00,,---,0.00,VWS V14.01,2013-08-26 05:01:00,
2013-08-25 22:06:00,67.8,57.7,29.90,SSE,150,0.0,0.0,70,0.00,,---,0.00,VWS V14.01,2013-08-26 05:06:00,
2013-08-25 22:11:00,67.6,58.3,29.90,SSE,151,0.0,0.0,72,0.00,,---,0.00,VWS V14.01,2013-08-26 05:11:00,
2013-08-25 22:15:00,67.0,58.1,29.90,SSE,161,0.0,0.0,73,0.00,,---,0.00,VWS V14.01,2013-08-26 05:15:00,
2013-08-25 22:16:00,67.1,58.2,29.90,SSE,161,0.0,0.0,73,0.00,,---,0.00,VWS V14.01,2013-08-26 05:16:00,
2013-08-25 22:21:00,66.7,58.2,29.90,SSE,161,0.0,0.0,74,0.00,,---,0.00,VWS V14.01,2013-08-26 05:21:00,
2013-08-25 22:26:00,66.6,58.4,29.90,SSE,161,0.0,0.0,75,0.00,,---,0.00,VWS V14.01,2013-08-26 05:26:00,
2013-08-25 22:30:00,66.5,58.3,29.90,SSE,161,0.0,0.0,75,0.00,,---,0.00,VWS V14.01,2013-08-26 05:30:00,
2013-08-25 22:31:00,66.5,58.3,29.90,SSE,161,0.0,0.0,75,0.00,,---,0.00,VWS V14.01,2013-08-26 05:31:00,
2013-08-25 22:36:00,66.6,58.4,29.90,SSE,161,0.0,0.0,75,0.00,,---,0.00,VWS V14.01,2013-08-26 05:36:00,
2013-08-25 22:41:00,66.6,58.8,29.89,SSE,161,0.0,0.0,76,0.00,,---,0.00,VWS V14.01,2013-08-26 05:41:00,
2013-08-25 22:45:00,66.6,58.4,29.89,SSE,161,0.0,0.0,75,0.00,,---,0.00,VWS V14.01,2013-08-26 05:45:00,
2013-08-25 22:46:00,66.6,58.4,29.89,SSE,161,0.0,0.0,75,0.00,,---,0.00,VWS V14.01,2013-08-26 05:46:00,
2013-08-25 22:51:00,66.6,58.8,29.89,SSE,161,0.0,0.0,76,0.00,,---,0.00,VWS V14.01,2013-08-26 05:51:00,
2013-08-25 22:56:00,66.6,58.4,29.89,SSE,161,0.0,0.0,75,0.00,,---,0.00,VWS V14.01,2013-08-26 05:56:00,
2013-08-25 23:00:00,66.5,58.7,29.89,SSE,161,0.0,0.0,76,0.00,,---,0.00,VWS V14.01,2013-08-26 06:00:00,
2013-08-25 23:01:00,66.6,58.8,29.89,SSE,161,0.0,0.0,76,0.00,,---,0.00,VWS V14.01,2013-08-26 06:01:00,
2013-08-25 23:06:00,66.5,58.7,29.90,SSE,161,0.0,0.0,76,0.00,,---,0.00,VWS V14.01,2013-08-26 06:06:00,
2013-08-25 23:11:00,66.4,59.0,29.89,SSE,161,0.0,0.0,77,0.00,,---,0.00,VWS V14.01,2013-08-26 06:11:00,
2013-08-25 23:15:00,66.3,58.9,29.89,SSE,161,0.0,0.0,77,0.00,,---,0.00,VWS V14.01,2013-08-26 06:15:00,
2013-08-25 23:16:00,66.3,58.9,29.89,SSE,161,0.0,0.0,77,0.00,,---,0.00,VWS V14.01,2013-08-26 06:16:00,
2013-08-25 23:21:00,66.3,58.9,29.89,SSE,164,0.0,0.0,77,0.00,,---,0.00,VWS V14.01,2013-08-26 06:21:00,
2013-08-25 23:25:00,66.2,58.8,29.89,SSE,163,0.0,0.0,77,0.00,,---,0.00,VWS V14.01,2013-08-26 06:25:00,
2013-08-25 23:30:00,66.2,58.8,29.89,SSE,163,0.0,0.0,77,0.00,,---,0.00,VWS V14.01,2013-08-26 06:30:00,
2013-08-25 23:35:00,66.1,58.7,29.89,SSE,163,0.0,0.0,77,0.00,,---,0.00,VWS V14.01,2013-08-26 06:35:00,
2013-08-25 23:40:00,66.1,58.7,29.89,SSE,163,0.0,0.0,77,0.00,,---,0.00,VWS V14.01,2013-08-26 06:40:00,
2013-08-25 23:45:00,66.1,58.7,29.89,SSE,163,0.0,0.0,77,0.00,,---,0.00,VWS V14.01,2013-08-26 06:45:00,
2013-08-25 23:50:00,66.1,58.3,29.89,SSE,163,0.0,0.0,76,0.00,,---,0.00,VWS V14.01,2013-08-26 06:50:00,
2013-08-25 23:55:00,66.1,58.3,29.89,SSE,163,0.0,0.0,76,0.00,,---,0.00,VWS V14.01,2013-08-26 06:55:00,